createdAt,value
2018-04-11T00:00:41.188Z,8.10
2018-04-11T00:03:08.771Z,8.10
2018-04-11T00:05:37.011Z,8.10
2018-04-11T00:08:04.484Z,8.00
2018-04-11T00:10:31.984Z,8.00
2018-04-11T00:12:59.519Z,8.00
2018-04-11T00:15:27.778Z,8.00
2018-04-11T00:17:55.397Z,7.90
2018-04-11T00:20:23.068Z,7.90
2018-04-11T00:22:50.543Z,7.90
2018-04-11T00:25:18.040Z,7.90
2018-04-11T00:27:46.281Z,7.80
2018-04-11T00:30:13.759Z,7.80
2018-04-11T00:32:42.609Z,7.80
2018-04-11T00:35:10.679Z,7.80
2018-04-11T00:37:38.151Z,7.80
2018-04-11T00:40:05.648Z,7.80
2018-04-11T00:42:33.132Z,7.80
2018-04-11T00:45:00.652Z,7.70
2018-04-11T00:47:29.240Z,7.70
2018-04-11T00:49:57.764Z,7.60
2018-04-11T00:52:25.236Z,7.60
2018-04-11T00:54:52.727Z,7.60
2018-04-11T00:57:21.009Z,7.70
2018-04-11T00:59:49.251Z,7.70
2018-04-11T01:02:16.840Z,7.70
2018-04-11T01:04:45.084Z,7.70
2018-04-11T01:07:12.564Z,7.60
2018-04-11T01:09:40.824Z,7.60
2018-04-11T01:12:08.296Z,7.60
2018-04-11T01:14:36.689Z,7.60
2018-04-11T01:17:04.951Z,7.60
2018-04-11T01:19:33.273Z,7.60
2018-04-11T01:22:00.752Z,7.60
2018-04-11T01:24:28.496Z,7.60
2018-04-11T01:26:56.125Z,7.60
2018-04-11T01:29:23.925Z,7.60
2018-04-11T01:31:51.433Z,7.70
2018-04-11T01:34:19.752Z,7.60
2018-04-11T01:36:47.272Z,7.60
2018-04-11T01:39:15.551Z,7.60
2018-04-11T01:41:43.827Z,7.60
2018-04-11T01:44:12.065Z,7.60
2018-04-11T01:46:39.555Z,7.60
2018-04-11T01:49:07.795Z,7.60
2018-04-11T01:51:35.283Z,7.60
2018-04-11T01:54:03.812Z,7.60
2018-04-11T01:56:31.304Z,7.60
2018-04-11T01:58:58.831Z,7.60
2018-04-11T02:01:26.348Z,7.60
2018-04-11T02:03:54.592Z,7.60
2018-04-11T02:06:22.072Z,7.60
2018-04-11T02:08:50.332Z,7.60
2018-04-11T02:11:17.811Z,7.60
2018-04-11T02:13:46.121Z,7.60
2018-04-11T02:16:13.592Z,7.60
2018-04-11T02:18:41.085Z,7.60
2018-04-11T02:21:08.560Z,7.60
2018-04-11T02:23:36.869Z,7.60
2018-04-11T02:26:04.348Z,7.60
2018-04-11T02:28:31.840Z,7.60
2018-04-11T02:31:00.120Z,7.50
2018-04-11T02:33:28.407Z,7.50
2018-04-11T02:35:56.923Z,7.60
2018-04-11T02:38:24.420Z,7.50
2018-04-11T02:40:52.144Z,7.60
2018-04-11T02:43:19.656Z,7.60
2018-04-11T02:45:47.891Z,7.60
2018-04-11T02:48:15.368Z,7.60
2018-04-11T02:50:43.853Z,7.70
2018-04-11T02:53:11.327Z,7.70
2018-04-11T02:55:39.579Z,7.80
2018-04-11T02:58:07.054Z,7.80
2018-04-11T03:00:35.315Z,7.80
2018-04-11T03:03:02.796Z,7.80
2018-04-11T03:05:31.064Z,7.80
2018-04-11T03:07:59.304Z,7.80
2018-04-11T03:10:27.050Z,7.80
2018-04-11T03:12:54.546Z,7.80
2018-04-11T03:15:22.855Z,7.70
2018-04-11T03:17:50.331Z,7.70
2018-04-11T03:20:19.123Z,7.70
2018-04-11T03:22:46.596Z,7.70
2018-04-11T03:25:14.098Z,7.60
2018-04-11T03:27:42.355Z,7.50
2018-04-11T03:30:09.971Z,7.50
2018-04-11T03:32:37.460Z,7.40
2018-04-11T03:35:04.944Z,7.40
2018-04-11T03:37:33.225Z,7.30
2018-04-11T03:40:01.472Z,7.30
2018-04-11T03:42:28.959Z,7.30
2018-04-11T03:44:57.201Z,7.10
2018-04-11T03:47:24.695Z,7.10
2018-04-11T03:49:52.931Z,6.90
2018-04-11T03:52:20.416Z,6.90
2018-04-11T03:54:48.679Z,6.70
2018-04-11T03:57:17.668Z,6.70
2018-04-11T03:59:46.004Z,6.60
2018-04-11T04:02:13.485Z,6.60
2018-04-11T04:04:40.979Z,6.60
2018-04-11T04:07:09.220Z,6.50
2018-04-11T04:09:36.711Z,6.50
2018-04-11T04:12:04.953Z,6.40
2018-04-11T04:14:44.424Z,6.40
2018-04-11T04:17:24.486Z,6.30
2018-04-11T04:20:04.662Z,6.20
2018-04-11T04:22:32.136Z,6.20
2018-04-11T04:24:59.623Z,6.20
2018-04-11T04:27:27.120Z,6.20
2018-04-11T04:29:54.659Z,6.20
2018-04-11T04:32:22.900Z,6.30
2018-04-11T04:34:50.384Z,6.30
2018-04-11T04:37:17.861Z,6.30
2018-04-11T04:39:46.120Z,6.30
2018-04-11T04:42:14.380Z,6.40
2018-04-11T04:44:41.856Z,6.30
2018-04-11T04:47:10.120Z,6.40
2018-04-11T04:49:37.588Z,6.40
2018-04-11T04:52:05.853Z,6.40
2018-04-11T04:54:34.139Z,6.40
2018-04-11T04:57:02.396Z,6.40
2018-04-11T04:59:29.868Z,6.30
2018-04-11T05:01:58.119Z,6.50
2018-04-11T05:04:25.595Z,6.30
2018-04-11T05:06:53.855Z,6.70
2018-04-11T05:09:21.329Z,6.70
2018-04-11T05:11:48.820Z,6.50
2018-04-11T05:14:16.325Z,6.50
2018-04-11T05:16:43.804Z,6.60
2018-04-11T05:19:11.368Z,6.90
2018-04-11T05:21:39.643Z,8.30
2018-04-11T05:24:07.893Z,9.30
2018-04-11T05:26:35.383Z,9.30
2018-04-11T05:29:03.632Z,10.50
2018-04-11T05:31:31.128Z,10.50
2018-04-11T05:33:58.600Z,12.00
2018-04-11T05:36:26.071Z,12.90
2018-04-11T05:38:53.588Z,13.60
2018-04-11T05:41:21.827Z,14.60
2018-04-11T05:43:50.456Z,15.30
2018-04-11T05:46:18.000Z,15.20
2018-04-11T05:48:46.276Z,16.60
2018-04-11T05:51:14.520Z,16.70
2018-04-11T05:53:42.012Z,16.70
2018-04-11T05:56:10.260Z,17.60
2018-04-11T05:58:37.752Z,17.50
2018-04-11T06:01:05.992Z,18.60
2018-04-11T06:03:34.974Z,19.00
2018-04-11T06:06:02.771Z,19.00
2018-04-11T06:08:30.197Z,19.60
2018-04-11T06:10:57.691Z,19.70
2018-04-11T06:13:25.932Z,19.40
2018-04-11T06:15:54.187Z,19.80
2018-04-11T06:18:21.665Z,19.80
2018-04-11T06:20:49.244Z,19.90
2018-04-11T06:23:16.809Z,20.00
2018-04-11T06:25:45.095Z,20.30
2018-04-11T06:28:13.357Z,20.50
2018-04-11T06:30:40.843Z,20.50
2018-04-11T06:33:08.371Z,20.90
2018-04-11T06:35:35.862Z,21.20
2018-04-11T06:38:03.352Z,19.70
2018-04-11T06:40:30.829Z,18.90
2018-04-11T06:42:58.323Z,19.80
2018-04-11T06:45:25.799Z,20.20
2018-04-11T06:47:53.292Z,20.90
2018-04-11T06:50:20.771Z,21.30
2018-04-11T06:52:48.261Z,21.80
2018-04-11T06:55:15.740Z,22.10
2018-04-11T06:57:43.231Z,22.10
2018-04-11T07:00:10.709Z,22.10
2018-04-11T07:02:38.983Z,23.00
2018-04-11T07:05:07.227Z,23.00
2018-04-11T07:07:34.718Z,22.90
2018-04-11T07:10:02.961Z,22.70
2018-04-11T07:12:30.455Z,22.70
2018-04-11T07:14:58.700Z,23.40
2018-04-11T07:17:26.286Z,23.40
2018-04-11T07:19:54.561Z,23.20
2018-04-11T07:22:22.803Z,22.20
2018-04-11T07:24:50.295Z,22.20
2018-04-11T07:27:18.543Z,19.70
2018-04-11T07:29:46.035Z,19.70
2018-04-11T07:32:14.284Z,22.00
2018-04-11T07:34:42.568Z,21.80
2018-04-11T07:37:10.884Z,19.20
2018-04-11T07:39:38.381Z,19.10
2018-04-11T07:42:05.860Z,20.90
2018-04-11T07:44:34.125Z,18.20
2018-04-11T07:47:03.106Z,20.50
2018-04-11T07:49:30.583Z,20.50
2018-04-11T07:51:58.396Z,18.50
2018-04-11T07:54:25.883Z,16.80
2018-04-11T07:56:53.371Z,19.30
2018-04-11T07:59:21.834Z,19.40
2018-04-11T08:01:49.328Z,19.30
2018-04-11T08:04:17.117Z,19.90
2018-04-11T08:06:44.607Z,21.00
2018-04-11T08:09:12.080Z,20.30
2018-04-11T08:11:40.340Z,21.90
2018-04-11T08:14:07.811Z,21.90
2018-04-11T08:16:36.080Z,22.20
2018-04-11T08:19:03.560Z,22.20
2018-04-11T08:21:31.808Z,20.10
2018-04-11T08:23:58.816Z,20.10
2018-04-11T08:26:26.296Z,20.40
2018-04-11T08:28:53.804Z,22.00
2018-04-11T08:31:21.290Z,22.40
2018-04-11T08:33:48.768Z,22.30
2018-04-11T08:36:16.604Z,22.70
2018-04-11T08:38:44.084Z,23.20
2018-04-11T08:41:11.576Z,23.10
2018-04-11T08:43:39.820Z,21.60
2018-04-11T08:46:07.308Z,21.60
2018-04-11T08:48:35.551Z,20.60
2018-04-11T08:51:03.040Z,20.60
2018-04-11T08:53:31.292Z,21.10
2018-04-11T08:55:58.817Z,21.10
2018-04-11T08:58:26.294Z,21.30
2018-04-11T09:00:53.791Z,21.70
2018-04-11T09:03:22.035Z,21.40
2018-04-11T09:05:49.658Z,21.40
2018-04-11T09:08:17.136Z,21.20
2018-04-11T09:10:44.612Z,21.30
2018-04-11T09:13:12.132Z,21.50
2018-04-11T09:15:39.608Z,21.30
2018-04-11T09:18:07.103Z,21.60
2018-04-11T09:20:34.584Z,21.90
2018-04-11T09:23:02.234Z,21.90
2018-04-11T09:25:30.503Z,22.80
2018-04-11T09:27:58.816Z,23.00
2018-04-11T09:30:26.296Z,23.00
2018-04-11T09:32:53.794Z,23.10
2018-04-11T09:35:22.039Z,22.90
2018-04-11T09:37:49.536Z,22.90
2018-04-11T09:40:17.780Z,22.90
2018-04-11T09:42:46.075Z,23.00
2018-04-11T09:45:14.352Z,23.20
2018-04-11T09:47:42.596Z,22.90
2018-04-11T09:50:10.467Z,22.90
2018-04-11T09:52:37.944Z,23.00
2018-04-11T09:55:05.434Z,22.70
2018-04-11T09:57:32.907Z,22.40
2018-04-11T10:00:00.427Z,22.80
2018-04-11T10:02:28.675Z,22.60
2018-04-11T10:04:56.167Z,22.60
2018-04-11T10:07:24.407Z,22.10
2018-04-11T10:09:51.896Z,22.10
2018-04-11T10:12:20.136Z,21.30
2018-04-11T10:14:47.728Z,21.20
2018-04-11T10:17:15.977Z,21.60
2018-04-11T10:19:43.556Z,21.50
2018-04-11T10:22:11.980Z,22.40
2018-04-11T10:24:39.453Z,22.40
2018-04-11T10:27:06.948Z,21.90
2018-04-11T10:29:35.192Z,21.60
2018-04-11T10:32:02.704Z,21.50
2018-04-11T10:34:30.176Z,22.00
2018-04-11T10:36:57.703Z,22.60
2018-04-11T10:39:25.944Z,23.80
2018-04-11T10:41:53.436Z,23.70
2018-04-11T10:44:20.912Z,24.20
2018-04-11T10:46:48.446Z,24.60
2018-04-11T10:49:16.692Z,24.10
2018-04-11T10:51:44.184Z,24.10
2018-04-11T10:54:12.423Z,22.80
2018-04-11T10:56:39.909Z,22.80
2018-04-11T10:59:08.172Z,23.00
2018-04-11T11:01:35.644Z,22.90
2018-04-11T11:04:05.085Z,23.60
2018-04-11T11:06:32.584Z,23.60
2018-04-11T11:09:00.072Z,24.40
2018-04-11T11:11:28.584Z,25.00
2018-04-11T11:13:56.087Z,25.00
2018-04-11T11:16:23.572Z,24.50
2018-04-11T11:18:51.365Z,24.40
2018-04-11T11:21:18.929Z,23.80
2018-04-11T11:23:46.423Z,22.60
2018-04-11T11:26:13.900Z,23.30
2018-04-11T11:28:42.160Z,22.30
2018-04-11T11:31:09.632Z,22.30
2018-04-11T11:33:37.904Z,22.60
2018-04-11T11:36:06.175Z,22.80
2018-04-11T11:38:34.432Z,23.70
2018-04-11T11:41:02.011Z,23.70
2018-04-11T11:43:30.292Z,24.80
2018-04-11T11:45:58.599Z,25.10
2018-04-11T11:48:26.824Z,26.00
2018-04-11T11:50:54.316Z,25.90
2018-04-11T11:53:21.852Z,26.00
2018-04-11T11:55:50.099Z,24.90
2018-04-11T11:58:17.941Z,24.90
2018-04-11T12:00:45.419Z,24.00
2018-04-11T12:03:13.160Z,23.40
2018-04-11T12:05:40.928Z,23.40
2018-04-11T12:08:08.428Z,23.30
2018-04-11T12:10:35.940Z,23.40
2018-04-11T12:13:03.700Z,24.60
2018-04-11T12:15:31.220Z,25.10
2018-04-11T12:17:59.464Z,25.10
2018-04-11T12:20:26.959Z,25.10
2018-04-11T12:22:55.200Z,26.30
2018-04-11T12:25:22.694Z,26.30
2018-04-11T12:27:50.176Z,26.30
2018-04-11T12:30:17.692Z,25.30
2018-04-11T12:32:45.947Z,22.10
2018-04-11T12:35:13.529Z,22.10
2018-04-11T12:37:41.777Z,21.20
2018-04-11T12:40:09.267Z,21.10
2018-04-11T12:42:37.788Z,20.50
2018-04-11T12:45:05.279Z,20.50
2018-04-11T12:47:32.751Z,19.70
2018-04-11T12:50:00.565Z,20.40
2018-04-11T12:52:28.040Z,21.00
2018-04-11T12:54:55.538Z,21.40
2018-04-11T12:57:23.779Z,21.00
2018-04-11T12:59:51.288Z,21.00
2018-04-11T13:02:18.779Z,21.80
2018-04-11T13:04:46.256Z,22.30
2018-04-11T13:07:13.851Z,22.70
2018-04-11T13:09:42.095Z,22.10
2018-04-11T13:12:09.588Z,22.10
2018-04-11T13:14:37.836Z,22.90
2018-04-11T13:17:05.328Z,22.90
2018-04-11T13:19:32.807Z,21.90
2018-04-11T13:22:00.295Z,21.00
2018-04-11T13:24:27.771Z,20.50
2018-04-11T13:26:55.264Z,20.40
2018-04-11T13:29:22.739Z,20.40
2018-04-11T13:31:50.216Z,20.30
2018-04-11T13:34:17.708Z,19.80
2018-04-11T13:36:45.948Z,20.20
2018-04-11T13:39:13.443Z,20.10
2018-04-11T13:41:41.688Z,20.80
2018-04-11T13:44:09.433Z,20.80
2018-04-11T13:46:36.932Z,20.30
2018-04-11T13:49:04.424Z,20.20
2018-04-11T13:51:31.896Z,19.80
2018-04-11T13:53:59.388Z,19.50
2018-04-11T13:56:26.869Z,19.30
2018-04-11T13:58:55.129Z,18.80
2018-04-11T14:01:23.384Z,18.40
2018-04-11T14:03:50.875Z,18.40
2018-04-11T14:06:19.120Z,18.00
2018-04-11T14:08:46.613Z,18.00
2018-04-11T14:11:14.851Z,17.90
2018-04-11T14:13:42.340Z,17.90
2018-04-11T14:16:10.584Z,17.90
2018-04-11T14:18:38.180Z,17.80
2018-04-11T14:21:06.424Z,18.20
2018-04-11T14:23:33.903Z,18.10
2018-04-11T14:26:02.161Z,18.90
2018-04-11T14:28:29.776Z,18.90
2018-04-11T14:30:57.292Z,19.30
2018-04-11T14:33:25.540Z,18.60
2018-04-11T14:35:53.235Z,18.50
2018-04-11T14:38:21.488Z,18.10
2018-04-11T14:40:48.971Z,18.10
2018-04-11T14:43:25.703Z,17.90
2018-04-11T14:45:55.502Z,17.60
2018-04-11T14:48:25.688Z,17.50
2018-04-11T14:51:02.661Z,17.50
2018-04-11T14:53:38.809Z,17.50
2018-04-11T14:56:16.297Z,17.50
2018-04-11T14:58:51.129Z,17.60
2018-04-11T15:01:24.742Z,17.80
2018-04-11T15:04:01.543Z,18.10
2018-04-11T15:06:37.059Z,18.30
2018-04-11T15:09:08.742Z,18.30
2018-04-11T15:11:47.500Z,18.50
2018-04-11T15:14:26.164Z,18.50
2018-04-11T15:17:03.003Z,18.70
2018-04-11T15:19:38.537Z,18.70
2018-04-11T15:22:08.016Z,18.90
2018-04-11T15:24:36.016Z,18.90
2018-04-11T15:27:04.690Z,19.10
2018-04-11T15:29:33.408Z,19.10
2018-04-11T15:32:01.856Z,18.60
2018-04-11T15:34:31.070Z,18.40
2018-04-11T15:36:58.809Z,18.30
2018-04-11T15:39:27.893Z,18.30
2018-04-11T15:41:57.354Z,18.20
2018-04-11T15:44:25.304Z,18.10
2018-04-11T15:46:54.659Z,18.10
2018-04-11T15:49:23.948Z,18.00
2018-04-11T15:51:52.547Z,17.90
2018-04-11T15:54:21.760Z,18.00
2018-04-11T15:56:51.082Z,18.00
2018-04-11T15:59:21.428Z,18.00
2018-04-11T16:01:50.462Z,18.00
2018-04-11T16:04:18.914Z,18.10
2018-04-11T16:06:48.491Z,18.10
2018-04-11T16:09:16.993Z,18.10
2018-04-11T16:11:45.143Z,18.20
2018-04-11T16:14:20.822Z,18.30
2018-04-11T16:16:50.138Z,18.40
2018-04-11T16:19:19.921Z,18.30
2018-04-11T16:21:47.929Z,18.30
2018-04-11T16:24:15.720Z,18.20
2018-04-11T16:26:43.864Z,18.20
2018-04-11T16:29:15.155Z,18.10
2018-04-11T16:31:43.080Z,18.20
2018-04-11T16:34:11.564Z,18.10
2018-04-11T16:36:41.104Z,18.10
2018-04-11T16:39:10.145Z,18.10
2018-04-11T16:41:39.636Z,17.90
2018-04-11T16:44:09.071Z,17.80
2018-04-11T16:46:38.022Z,17.60
2018-04-11T16:49:06.409Z,17.60
2018-04-11T16:51:35.856Z,17.50
2018-04-11T16:54:04.012Z,17.40
2018-04-11T16:56:33.625Z,17.30
2018-04-11T16:59:03.061Z,17.20
2018-04-11T17:01:32.115Z,17.10
2018-04-11T17:03:59.981Z,17.00
2018-04-11T17:06:27.848Z,17.00
2018-04-11T17:08:55.404Z,16.90
2018-04-11T17:11:23.200Z,16.90
2018-04-11T17:13:51.036Z,16.80
2018-04-11T17:16:19.856Z,16.80
2018-04-11T17:18:49.693Z,16.80
2018-04-11T17:21:29.584Z,16.70
2018-04-11T17:24:09.227Z,16.60
2018-04-11T17:26:49.996Z,16.60
2018-04-11T17:29:31.331Z,16.50
2018-04-11T17:32:01.590Z,16.30
2018-04-11T17:34:31.005Z,16.30
2018-04-11T17:36:59.616Z,16.20
2018-04-11T17:39:28.257Z,16.20
2018-04-11T17:41:56.340Z,16.20
2018-04-11T17:44:25.056Z,16.20
2018-04-11T17:46:55.538Z,16.10
2018-04-11T17:49:24.341Z,16.00
2018-04-11T17:51:52.943Z,15.90
2018-04-11T17:54:21.650Z,15.90
2018-04-11T17:56:50.557Z,15.90
2018-04-11T17:59:21.008Z,15.80
2018-04-11T18:01:49.819Z,15.80
2018-04-11T18:04:19.283Z,15.70
2018-04-11T18:06:48.821Z,15.70
2018-04-11T18:09:17.841Z,15.70
2018-04-11T18:11:47.079Z,15.70
2018-04-11T18:14:16.478Z,15.70
2018-04-11T18:16:45.608Z,15.60
2018-04-11T18:19:14.470Z,15.60
2018-04-11T18:21:43.496Z,15.60
2018-04-11T18:24:11.877Z,15.50
2018-04-11T18:26:41.855Z,15.50
2018-04-11T18:29:09.861Z,15.40
2018-04-11T18:31:37.624Z,15.40
2018-04-11T18:34:07.045Z,15.30
2018-04-11T18:36:35.980Z,15.30
2018-04-11T18:39:04.802Z,15.30
2018-04-11T18:41:33.859Z,15.30
2018-04-11T18:44:02.893Z,15.20
2018-04-11T18:46:30.874Z,15.20
2018-04-11T18:48:58.374Z,15.10
2018-04-11T18:51:26.619Z,15.00
2018-04-11T18:53:54.120Z,15.00
2018-04-11T18:56:22.374Z,14.90
2018-04-11T18:58:50.191Z,14.90
2018-04-11T19:01:17.907Z,14.90
2018-04-11T19:03:45.450Z,14.80
2018-04-11T19:06:12.997Z,14.70
2018-04-11T19:08:40.735Z,14.70
2018-04-11T19:11:08.207Z,14.60
2018-04-11T19:13:35.701Z,14.60
2018-04-11T19:16:03.179Z,14.50
2018-04-11T19:18:30.680Z,14.50
2018-04-11T19:20:58.164Z,14.40
2018-04-11T19:23:25.635Z,14.40
2018-04-11T19:25:54.163Z,14.30
2018-04-11T19:28:21.636Z,14.20
2018-04-11T19:30:49.128Z,14.20
2018-04-11T19:33:16.612Z,14.10
2018-04-11T19:35:44.093Z,14.20
2018-04-11T19:38:11.603Z,14.10
2018-04-11T19:40:39.853Z,14.10
2018-04-11T19:43:07.348Z,14.00
2018-04-11T19:45:35.842Z,14.00
2018-04-11T19:48:03.340Z,13.90
2018-04-11T19:50:30.835Z,13.90
2018-04-11T19:52:59.096Z,14.00
2018-04-11T19:55:27.339Z,13.90
2018-04-11T19:57:54.813Z,13.90
2018-04-11T20:00:22.328Z,13.80
2018-04-11T20:02:50.037Z,13.80
2018-04-11T20:05:18.304Z,13.70
2018-04-11T20:07:45.780Z,13.70
2018-04-11T20:10:13.252Z,13.60
2018-04-11T20:12:41.532Z,13.60
2018-04-11T20:15:09.772Z,13.50
2018-04-11T20:17:37.273Z,13.50
2018-04-11T20:20:05.511Z,13.50
2018-04-11T20:22:33.752Z,13.50
2018-04-11T20:25:01.389Z,13.50
2018-04-11T20:27:28.864Z,13.50
2018-04-11T20:29:56.363Z,13.60
2018-04-11T20:32:23.836Z,13.60
2018-04-11T20:34:52.079Z,13.60
2018-04-11T20:37:19.820Z,13.50
2018-04-11T20:39:47.295Z,13.60
2018-04-11T20:42:14.796Z,13.60
2018-04-11T20:44:43.048Z,13.60
2018-04-11T20:47:10.527Z,13.60
2018-04-11T20:49:38.789Z,13.60
2018-04-11T20:52:06.321Z,13.60
2018-04-11T20:54:33.855Z,13.70
2018-04-11T20:57:01.376Z,13.70
2018-04-11T20:59:29.633Z,13.60
2018-04-11T21:01:57.213Z,13.50
2018-04-11T21:04:25.737Z,13.50
2018-04-11T21:06:53.240Z,13.50
2018-04-11T21:09:20.728Z,13.60
2018-04-11T21:11:48.204Z,13.60
2018-04-11T21:14:15.692Z,13.50
2018-04-11T21:16:44.029Z,13.50
2018-04-11T21:19:11.538Z,13.50
2018-04-11T21:21:39.114Z,13.60
2018-04-11T21:24:07.357Z,13.60
2018-04-11T21:26:34.848Z,13.60
2018-04-11T21:29:03.104Z,13.60
2018-04-11T21:31:31.400Z,13.60
2018-04-11T21:33:59.645Z,13.70
2018-04-11T21:36:27.380Z,13.60
2018-04-11T21:38:54.880Z,13.70
2018-04-11T21:41:22.924Z,13.70
2018-04-11T21:43:50.531Z,13.70
2018-04-11T21:46:18.775Z,13.70
2018-04-11T21:48:46.272Z,13.70
2018-04-11T21:51:14.528Z,13.70
2018-04-11T21:53:42.015Z,13.60
2018-04-11T21:56:10.472Z,13.60
2018-04-11T21:58:38.711Z,13.70
2018-04-11T22:01:06.189Z,13.70
2018-04-11T22:03:33.676Z,13.70
2018-04-11T22:06:01.157Z,13.60
2018-04-11T22:08:28.659Z,13.50
2018-04-11T22:10:56.899Z,13.50
2018-04-11T22:13:24.379Z,13.50
2018-04-11T22:33:06.309Z,13.10
2018-04-11T22:35:34.553Z,13.10
2018-04-11T22:38:02.040Z,13.00
2018-04-11T22:40:30.303Z,13.10
2018-04-11T22:42:58.556Z,13.10
2018-04-11T22:45:26.032Z,13.10
2018-04-11T22:47:53.537Z,13.10
2018-04-11T22:50:21.012Z,13.10
2018-04-11T22:52:48.524Z,13.10
2018-04-11T22:55:16.788Z,13.10
2018-04-11T22:57:44.365Z,13.10
2018-04-11T23:00:12.607Z,13.10
2018-04-11T23:02:40.120Z,13.10
2018-04-11T23:05:07.595Z,13.20
2018-04-11T23:07:35.068Z,13.20
2018-04-11T23:10:02.565Z,13.10
2018-04-11T23:12:30.808Z,13.10
2018-04-11T23:14:58.290Z,13.10
2018-04-11T23:17:26.100Z,13.20
2018-04-11T23:19:53.581Z,13.20
2018-04-11T23:22:21.060Z,13.20
2018-04-11T23:24:48.556Z,13.20
2018-04-11T23:27:16.088Z,13.20
2018-04-11T23:29:44.332Z,13.10
2018-04-11T23:32:11.832Z,13.20
2018-04-11T23:34:40.072Z,13.20
2018-04-11T23:37:07.556Z,13.20
2018-04-11T23:39:35.818Z,13.20
2018-04-11T23:42:03.296Z,13.10
2018-04-11T23:44:31.536Z,13.30
2018-04-11T23:46:59.032Z,13.30
2018-04-11T23:49:27.267Z,13.40
2018-04-11T23:51:54.785Z,13.40
2018-04-11T23:54:22.348Z,13.40
2018-04-11T23:56:49.872Z,13.40
2018-04-11T23:59:18.112Z,13.40
